Time;durP1;ratioP1;P1;durP2;ratioP2;P2;SDS_P1;SDS_P2;PMS_P1;PMS_P2;Temp;Humidity;BMP_temperature;BMP_pressure;BME280_temperature;BME280_humidity;BME280_pressure;Samples;Min_cycle;Max_cycle;Signal;HPM_P1;HPM_P2
2022/11/22 00:01:02;;;;;;;29.95;17.05;;;4.60;83.80;;;;;;5074449;28;20071;-83
2022/11/22 00:03:28;;;;;;;28.83;17.08;;;4.60;83.80;;;;;;5074447;28;20040;-83
2022/11/22 00:05:53;;;;;;;33.33;17.88;;;4.70;83.70;;;;;;5057418;28;20389;-83
2022/11/22 00:08:19;;;;;;;29.60;17.63;;;4.60;84.10;;;;;;5074244;28;20047;-82
2022/11/22 00:10:48;;;;;;;29.50;17.40;;;4.50;83.70;;;;;;5057381;28;20071;-83
2022/11/22 00:13:14;;;;;;;31.38;17.92;;;4.60;83.80;;;;;;5077922;28;20036;-84
2022/11/22 00:15:40;;;;;;;29.25;18.17;;;4.50;83.80;;;;;;5043622;28;20701;-84
2022/11/22 00:18:06;;;;;;;31.38;18.23;;;4.50;83.70;;;;;;5077844;28;20123;-83
2022/11/22 00:20:32;;;;;;;35.83;17.95;;;4.50;83.80;;;;;;5094790;28;20082;-83
2022/11/22 00:22:58;;;;;;;28.00;16.83;;;4.50;83.80;;;;;;5094753;28;20111;-83
2022/11/22 00:25:24;;;;;;;29.60;17.13;;;4.50;83.80;;;;;;5044525;28;20471;-82
2022/11/22 00:27:49;;;;;;;25.83;15.10;;;4.50;84.20;;;;;;5061277;28;20031;-83
2022/11/22 00:30:15;;;;;;;30.23;17.15;;;4.80;84.00;;;;;;5061177;28;20036;-84
2022/11/22 00:32:41;;;;;;;27.20;16.13;;;4.50;83.80;;;;;;5060809;28;20064;-82
2022/11/22 00:35:08;;;;;;;28.65;16.08;;;4.50;83.90;;;;;;5077350;28;20523;-84
2022/11/22 00:37:34;;;;;;;27.15;16.52;;;4.50;83.90;;;;;;5077930;28;20036;-83
2022/11/22 00:39:59;;;;;;;27.40;16.20;;;4.50;83.90;;;;;;5077817;28;20043;-83
2022/11/22 00:42:25;;;;;;;25.08;15.50;;;4.50;84.00;;;;;;5041210;28;20048;-84
2022/11/22 00:44:50;;;;;;;25.60;15.48;;;4.50;84.10;;;;;;5076458;28;20531;-83
2022/11/22 00:47:16;;;;;;;29.38;15.25;;;4.50;84.00;;;;;;5057267;28;20044;-83
2022/11/22 00:49:42;;;;;;;30.40;15.65;;;4.50;84.10;;;;;;5068637;28;20032;-83
2022/11/22 00:52:07;;;;;;;27.90;15.13;;;4.50;84.10;;;;;;5093491;28;20097;-83
2022/11/22 00:54:33;;;;;;;24.90;14.68;;;4.60;84.20;;;;;;5076287;28;20035;-83
2022/11/22 00:56:59;;;;;;;26.55;14.73;;;4.50;84.20;;;;;;5058380;28;20028;-83
2022/11/22 00:59:24;;;;;;;22.80;14.65;;;4.50;84.10;;;;;;5076429;28;20042;-84
2022/11/22 01:01:50;;;;;;;26.42;14.23;;;4.50;84.20;;;;;;5093339;28;20046;-83
2022/11/22 01:04:16;;;;;;;24.98;14.10;;;4.60;84.30;;;;;;5093466;28;20069;-83
2022/11/22 01:06:41;;;;;;;25.70;13.77;;;4.60;84.30;;;;;;5076689;28;20040;-83
2022/11/22 01:09:07;;;;;;;21.65;14.30;;;4.70;84.40;;;;;;5076523;28;20044;-83
2022/11/22 01:11:32;;;;;;;23.38;14.13;;;4.70;84.40;;;;;;5093567;28;20407;-82
2022/11/22 01:13:59;;;;;;;24.67;14.30;;;4.60;84.30;;;;;;5060025;28;20429;-83
2022/11/22 01:16:25;;;;;;;26.42;14.65;;;4.70;84.40;;;;;;5043678;28;20065;-83
2022/11/22 01:18:51;;;;;;;22.52;13.20;;;4.60;84.30;;;;;;5094034;28;20043;-83
2022/11/22 01:21:16;;;;;;;22.40;13.63;;;4.70;84.30;;;;;;5059841;28;20043;-82
2022/11/22 01:23:42;;;;;;;24.65;14.63;;;4.70;84.30;;;;;;5076233;28;20043;-83
2022/11/22 01:26:08;;;;;;;25.27;14.77;;;4.70;84.30;;;;;;5076404;28;20044;-81
2022/11/22 01:28:34;;;;;;;30.08;14.75;;;4.70;84.30;;;;;;5043401;28;20047;-83
2022/11/22 01:31:00;;;;;;;24.83;13.88;;;4.80;84.40;;;;;;5076298;28;20040;-83
2022/11/22 01:33:27;;;;;;;25.85;14.70;;;4.70;84.40;;;;;;5076253;28;20043;-82
2022/11/22 01:35:53;;;;;;;25.08;14.40;;;4.90;84.50;;;;;;5076288;28;20128;-83
2022/11/22 01:38:18;;;;;;;23.08;13.55;;;4.70;84.30;;;;;;5056159;28;20059;-83
2022/11/22 01:40:44;;;;;;;24.63;14.02;;;4.70;84.40;;;;;;5091686;28;20044;-83
2022/11/22 01:43:22;;;;;;;22.95;13.38;;;4.70;84.30;;;;;;5076317;28;20123;-83
2022/11/22 01:45:54;;;;;;;22.20;14.60;;;4.70;84.40;;;;;;5071682;28;20078;-82
2022/11/22 01:48:32;;;;;;;27.75;15.07;;;4.80;84.30;;;;;;5079878;28;20494;-83
2022/11/22 01:51:11;;;;;;;26.38;14.13;;;4.70;84.20;;;;;;5072875;28;20037;-83
2022/11/22 01:53:38;;;;;;;25.45;13.95;;;4.80;84.30;;;;;;5088385;28;20043;-83
2022/11/22 01:56:08;;;;;;;23.38;13.73;;;4.70;84.20;;;;;;5093021;28;20032;-83
2022/11/22 01:58:38;;;;;;;22.27;13.60;;;4.70;84.20;;;;;;5092957;28;20040;-82
2022/11/22 02:01:04;;;;;;;24.05;14.60;;;4.80;84.30;;;;;;5075930;28;20039;-82
2022/11/22 02:03:33;;;;;;;24.08;15.77;;;4.80;84.30;;;;;;5092760;28;20032;-82
2022/11/22 02:05:59;;;;;;;25.80;15.30;;;5.00;84.50;;;;;;5092549;28;20052;-83
2022/11/22 02:08:31;;;;;;;25.70;16.00;;;4.70;84.70;;;;;;5056685;28;20150;-83
2022/11/22 02:11:00;;;;;;;24.23;14.48;;;4.70;84.30;;;;;;5085293;28;20457;-82
2022/11/22 02:13:26;;;;;;;24.92;15.38;;;4.80;84.40;;;;;;5092298;28;20032;-82
2022/11/22 02:15:52;;;;;;;22.67;14.27;;;4.80;84.40;;;;;;5075735;28;20032;-82
2022/11/22 02:18:18;;;;;;;25.85;15.20;;;4.80;84.40;;;;;;5058996;28;20036;-83
2022/11/22 02:20:44;;;;;;;28.27;15.32;;;4.80;84.50;;;;;;5075450;28;20067;-82
2022/11/22 02:23:22;;;;;;;27.15;14.00;;;4.80;84.50;;;;;;5075895;28;20032;-82
2022/11/22 02:25:49;;;;;;;23.50;13.80;;;4.80;84.60;;;;;;5075464;28;20483;-83
2022/11/22 02:28:15;;;;;;;27.05;15.20;;;4.80;84.60;;;;;;5075474;28;20031;-82
2022/11/22 02:30:41;;;;;;;25.90;13.95;;;4.80;84.60;;;;;;5092096;28;20419;-83
2022/11/22 02:33:08;;;;;;;26.40;14.32;;;4.80;84.60;;;;;;5092321;28;20032;-84
2022/11/22 02:35:34;;;;;;;23.20;13.25;;;4.80;84.70;;;;;;5091204;28;20036;-82
2022/11/22 02:38:16;;;;;;;21.15;12.80;;;4.80;85.10;;;;;;5075335;28;20028;-82
2022/11/22 02:41:02;;;;;;;23.55;14.38;;;5.00;85.00;;;;;;5074446;28;20511;-81
2022/11/22 02:43:40;;;;;;;21.15;13.27;;;4.90;84.90;;;;;;5091887;28;20036;-82
2022/11/22 02:46:11;;;;;;;20.20;13.32;;;4.90;84.90;;;;;;5082852;28;20190;-83
2022/11/22 02:48:43;;;;;;;25.88;14.10;;;4.90;84.90;;;;;;5092026;28;20048;-83
2022/11/22 02:51:10;;;;;;;23.15;13.57;;;5.00;85.00;;;;;;5091615;28;20502;-82
2022/11/22 02:53:36;;;;;;;24.63;14.18;;;5.00;84.80;;;;;;5075274;28;20036;-82
2022/11/22 02:56:02;;;;;;;26.58;14.80;;;5.00;84.80;;;;;;5091917;28;20036;-82
2022/11/22 02:58:27;;;;;;;22.05;13.50;;;5.00;84.80;;;;;;5091689;28;20110;-82
2022/11/22 03:00:53;;;;;;;22.42;13.60;;;5.10;84.90;;;;;;5074926;28;20036;-82
2022/11/22 03:03:19;;;;;;;22.83;15.15;;;5.10;84.90;;;;;;5041578;28;20040;-82
2022/11/22 03:05:44;;;;;;;21.95;13.95;;;5.10;84.90;;;;;;5075207;28;20105;-82
2022/11/22 03:08:10;;;;;;;22.48;14.30;;;5.10;84.90;;;;;;5056732;28;20403;-82
2022/11/22 03:10:35;;;;;;;21.65;13.82;;;5.10;84.90;;;;;;5076056;28;20083;-83
2022/11/22 03:13:01;;;;;;;23.08;13.27;;;5.10;84.90;;;;;;5075159;28;20047;-82
2022/11/22 03:15:27;;;;;;;22.98;14.18;;;5.10;84.90;;;;;;5074720;28;20040;-82
2022/11/22 03:17:57;;;;;;;25.70;13.98;;;5.10;85.00;;;;;;5091791;28;20028;-82
2022/11/22 03:20:23;;;;;;;26.20;15.95;;;5.20;85.10;;;;;;5090472;28;20086;-82
2022/11/22 03:22:49;;;;;;;25.13;14.35;;;5.20;85.00;;;;;;5075056;28;20044;-83
2022/11/22 03:25:14;;;;;;;26.65;13.93;;;5.20;85.00;;;;;;5058104;28;20047;-82
2022/11/22 03:27:40;;;;;;;24.10;13.52;;;5.20;85.10;;;;;;5055049;28;20041;-82
2022/11/22 03:30:06;;;;;;;21.63;13.25;;;5.30;85.20;;;;;;5101566;28;20044;-82
2022/11/22 03:32:32;;;;;;;23.13;13.82;;;5.20;85.20;;;;;;5074793;28;20036;-82
2022/11/22 03:34:57;;;;;;;21.85;14.10;;;5.30;85.20;;;;;;5058398;28;20506;-82
2022/11/22 03:37:23;;;;;;;20.98;13.55;;;5.30;85.20;;;;;;5058314;28;20510;-82
2022/11/22 03:39:49;;;;;;;21.40;13.70;;;5.30;85.20;;;;;;5074371;28;20043;-83
2022/11/22 03:42:14;;;;;;;22.15;14.27;;;5.30;85.30;;;;;;5057918;28;20058;-82
2022/11/22 03:44:40;;;;;;;25.08;14.45;;;5.40;85.40;;;;;;5091410;28;20043;-82
2022/11/22 03:47:06;;;;;;;23.30;14.10;;;5.30;85.30;;;;;;5093602;28;20074;-83
2022/11/22 03:49:31;;;;;;;25.00;14.63;;;5.40;85.40;;;;;;5078390;28;20043;-82
2022/11/22 03:51:57;;;;;;;22.25;14.07;;;5.40;85.40;;;;;;5061615;28;20109;-82
2022/11/22 03:54:22;;;;;;;19.48;13.63;;;5.50;85.50;;;;;;5094966;28;20040;-82
2022/11/22 03:56:48;;;;;;;23.55;13.73;;;5.50;85.50;;;;;;5078557;28;20119;-82
2022/11/22 03:59:14;;;;;;;25.80;13.77;;;5.50;85.50;;;;;;5078412;28;20036;-83
2022/11/22 04:01:39;;;;;;;23.83;13.93;;;5.50;85.50;;;;;;5078507;28;20486;-82
2022/11/22 04:04:05;;;;;;;23.58;15.23;;;5.50;85.50;;;;;;5094846;28;21666;-82
2022/11/22 04:06:31;;;;;;;23.08;13.57;;;5.50;85.40;;;;;;5059881;28;20500;-82
2022/11/22 04:08:57;;;;;;;22.67;13.63;;;5.50;85.50;;;;;;5094861;28;20039;-83
2022/11/22 04:11:22;;;;;;;24.02;13.70;;;5.60;85.50;;;;;;5061174;28;20036;-82
2022/11/22 04:16:32;;;;;;;20.88;14.20;;;5.60;85.50;;;;;;5095126;28;20043;-82
2022/11/22 04:18:58;;;;;;;20.48;13.70;;;5.60;85.50;;;;;;5095033;28;20036;-82
2022/11/22 04:21:32;;;;;;;20.88;13.57;;;5.60;85.50;;;;;;5078188;28;20043;-82
2022/11/22 04:26:42;;;;;;;21.25;12.70;;;5.60;85.40;;;;;;5095048;28;19965;-83
2022/11/22 04:29:08;;;;;;;26.05;14.35;;;5.60;85.60;;;;;;5077680;28;20437;-82
2022/11/22 04:34:18;;;;;;;22.10;15.57;;;5.70;85.60;;;;;;5089809;28;20054;-82
2022/11/22 04:36:43;;;;;;;19.88;13.40;;;5.70;85.60;;;;;;5044215;28;20028;-83
2022/11/22 04:39:09;;;;;;;23.13;14.50;;;5.70;85.60;;;;;;5040871;28;20120;-83
2022/11/22 04:41:35;;;;;;;23.27;13.40;;;5.70;85.70;;;;;;5104092;28;20052;-81
2022/11/22 04:46:44;;;;;;;23.25;14.07;;;5.70;85.70;;;;;;5097156;28;20094;-82
2022/11/22 04:49:10;;;;;;;23.30;14.68;;;5.80;85.80;;;;;;5094029;28;20437;-83
2022/11/22 04:54:20;;;;;;;24.90;13.85;;;5.90;86.30;;;;;;5080195;28;20054;-82
2022/11/22 04:56:45;;;;;;;25.77;14.23;;;5.80;85.80;;;;;;5085785;28;20478;-83
2022/11/22 04:59:11;;;;;;;22.85;14.70;;;5.80;85.90;;;;;;5039850;28;20041;-83
2022/11/22 05:01:37;;;;;;;27.50;14.77;;;5.80;85.90;;;;;;5055192;28;20036;-82
2022/11/22 05:04:02;;;;;;;21.92;14.02;;;5.90;86.00;;;;;;5077115;28;20044;-83
2022/11/22 05:06:28;;;;;;;24.77;15.43;;;5.90;86.00;;;;;;5076806;28;20052;-83
2022/11/22 05:08:54;;;;;;;24.45;14.10;;;5.90;86.00;;;;;;5093766;28;20036;-83
2022/11/22 05:11:19;;;;;;;24.83;14.05;;;6.00;86.10;;;;;;5077233;28;20032;-82
2022/11/22 05:13:45;;;;;;;23.35;14.38;;;6.10;86.20;;;;;;5076907;28;20036;-83
2022/11/22 05:16:13;;;;;;;19.15;13.23;;;6.00;86.20;;;;;;5076810;28;20032;-83
2022/11/22 05:18:39;;;;;;;26.00;13.73;;;6.00;86.20;;;;;;5093569;28;20098;-82
2022/11/22 05:21:06;;;;;;;24.10;14.23;;;6.00;86.30;;;;;;5093727;28;20055;-83
2022/11/22 05:26:17;;;;;;;22.45;12.77;;;6.10;86.30;;;;;;5093235;28;20422;-83
2022/11/22 05:28:42;;;;;;;19.45;12.88;;;6.10;86.30;;;;;;5076730;28;20040;-82
2022/11/22 05:31:16;;;;;;;22.60;14.18;;;6.10;86.30;;;;;;5093243;28;20043;-82
2022/11/22 05:33:44;;;;;;;21.83;13.10;;;6.20;86.30;;;;;;5093888;28;20144;-83
2022/11/22 05:36:11;;;;;;;25.15;13.88;;;6.20;86.30;;;;;;5076505;28;20472;-82
2022/11/22 05:38:37;;;;;;;21.42;13.27;;;6.20;86.30;;;;;;5076536;28;20051;-82
2022/11/22 05:41:04;;;;;;;21.23;12.82;;;6.20;86.20;;;;;;5093238;28;20400;-82
2022/11/22 05:43:30;;;;;;;21.10;11.07;;;6.20;86.20;;;;;;5076393;28;20043;-82
2022/11/22 05:46:03;;;;;;;19.50;11.95;;;6.20;86.20;;;;;;5059560;28;20032;-82
2022/11/22 05:48:28;;;;;;;20.80;11.85;;;6.20;86.10;;;;;;5094901;28;20041;-82
2022/11/22 05:50:54;;;;;;;18.95;11.40;;;6.20;86.10;;;;;;5091063;28;20039;-83
2022/11/22 05:53:19;;;;;;;20.52;12.27;;;6.20;86.00;;;;;;5093042;28;20089;-84
2022/11/22 05:55:45;;;;;;;20.90;11.10;;;6.10;85.90;;;;;;5059912;28;20043;-82
2022/11/22 05:58:11;;;;;;;22.50;11.50;;;6.10;85.90;;;;;;5076516;28;20059;-82
2022/11/22 06:00:36;;;;;;;17.60;10.02;;;6.10;85.90;;;;;;5076306;28;20495;-82
2022/11/22 06:03:03;;;;;;;17.80;9.70;;;6.20;85.90;;;;;;5059828;28;20046;-82
2022/11/22 06:05:29;;;;;;;22.17;10.80;;;6.10;85.80;;;;;;5076024;28;20086;-82
2022/11/22 06:08:00;;;;;;;17.58;9.80;;;6.10;85.70;;;;;;5093217;28;20040;-82
2022/11/22 06:10:26;;;;;;;18.52;9.40;;;6.20;85.80;;;;;;5075890;28;20135;-82
2022/11/22 06:12:53;;;;;;;19.35;10.13;;;6.10;85.60;;;;;;5075970;28;20078;-82
2022/11/22 06:15:18;;;;;;;16.92;9.07;;;6.00;85.80;;;;;;5075743;28;20040;-82
2022/11/22 06:17:44;;;;;;;18.90;9.98;;;6.00;85.30;;;;;;5110160;28;20060;-82
2022/11/22 06:20:10;;;;;;;14.25;9.00;;;6.00;85.20;;;;;;5075930;28;20047;-81
2022/11/22 06:22:36;;;;;;;20.08;10.43;;;6.00;85.20;;;;;;5075217;28;20079;-81
2022/11/22 06:25:01;;;;;;;21.95;9.40;;;6.00;85.10;;;;;;5056230;28;20136;-81
2022/11/22 06:27:27;;;;;;;17.30;8.93;;;5.90;85.10;;;;;;5080439;28;20082;-81
2022/11/22 06:29:53;;;;;;;23.30;9.73;;;5.90;85.00;;;;;;5065633;28;20040;-81
2022/11/22 06:32:18;;;;;;;15.85;8.85;;;5.90;85.00;;;;;;5064778;28;20036;-81
2022/11/22 06:34:44;;;;;;;15.55;8.27;;;5.90;84.90;;;;;;5062822;28;20047;-81
2022/11/22 06:37:13;;;;;;;18.17;8.95;;;5.80;84.80;;;;;;5039087;28;20036;-82
2022/11/22 06:39:38;;;;;;;12.82;8.13;;;5.80;84.80;;;;;;5056142;28;20048;-82
2022/11/22 06:42:04;;;;;;;13.68;8.63;;;5.80;85.20;;;;;;5039140;28;20431;-81
2022/11/22 06:44:30;;;;;;;15.75;7.68;;;5.70;84.70;;;;;;5074212;28;20085;-81
2022/11/22 06:46:55;;;;;;;15.77;7.78;;;5.90;84.80;;;;;;5075692;28;20040;-82
2022/11/22 06:49:21;;;;;;;15.48;6.80;;;5.70;84.60;;;;;;5075700;28;20043;-81
2022/11/22 06:51:47;;;;;;;15.40;7.75;;;5.70;84.60;;;;;;5092475;28;20036;-82
2022/11/22 06:54:12;;;;;;;16.73;7.47;;;5.70;84.60;;;;;;5058776;28;20119;-82
2022/11/22 06:56:39;;;;;;;15.13;6.82;;;5.70;84.60;;;;;;5036462;28;20470;-81
2022/11/22 06:59:06;;;;;;;19.63;7.45;;;5.60;84.50;;;;;;5072141;28;20044;-82
2022/11/22 07:01:33;;;;;;;15.93;6.50;;;5.60;84.50;;;;;;5072376;28;20499;-81
2022/11/22 07:04:00;;;;;;;15.40;6.70;;;5.60;84.50;;;;;;5073120;28;20032;-81
2022/11/22 07:06:29;;;;;;;15.40;6.40;;;5.60;84.50;;;;;;5055676;28;20060;-82
2022/11/22 07:08:54;;;;;;;12.63;5.57;;;5.60;84.40;;;;;;5072111;28;20041;-82
2022/11/22 07:11:23;;;;;;;14.50;5.32;;;5.60;84.40;;;;;;5052734;28;20055;-82
2022/11/22 07:13:49;;;;;;;23.42;6.22;;;5.50;84.40;;;;;;5075661;28;20445;-82
2022/11/22 07:16:19;;;;;;;14.63;5.70;;;5.50;84.30;;;;;;5092278;28;20036;-81
2022/11/22 07:18:46;;;;;;;15.27;5.68;;;5.50;84.40;;;;;;5075555;28;20086;-82
2022/11/22 07:21:17;;;;;;;14.60;5.90;;;5.50;84.30;;;;;;5076078;28;20039;-82
2022/11/22 07:23:45;;;;;;;13.90;6.20;;;5.50;84.40;;;;;;5079272;28;20036;-82
2022/11/22 07:26:12;;;;;;;17.63;5.82;;;5.50;84.40;;;;;;5096402;28;20445;-82
2022/11/22 07:28:38;;;;;;;17.83;5.75;;;5.40;84.30;;;;;;5079366;28;20101;-82
2022/11/22 07:31:06;;;;;;;17.38;5.00;;;5.40;84.40;;;;;;5096163;28;20123;-83
2022/11/22 07:33:32;;;;;;;16.40;6.55;;;5.40;84.40;;;;;;5096504;28;20403;-82
2022/11/22 07:36:04;;;;;;;20.33;5.40;;;5.40;84.40;;;;;;5062732;28;20040;-83
2022/11/22 07:38:30;;;;;;;19.85;5.60;;;5.40;84.50;;;;;;5096046;28;20051;-83
2022/11/22 07:40:56;;;;;;;18.25;5.47;;;5.30;84.30;;;;;;5096458;28;20032;-82
2022/11/22 07:43:21;;;;;;;16.73;5.20;;;5.40;84.40;;;;;;5062672;28;20497;-82
2022/11/22 07:45:47;;;;;;;16.58;5.35;;;5.40;84.40;;;;;;5096029;28;20581;-83
2022/11/22 07:48:13;;;;;;;14.98;5.15;;;5.30;84.50;;;;;;5078961;28;20036;-82
2022/11/22 07:50:41;;;;;;;21.10;6.22;;;5.30;84.50;;;;;;5062519;28;20040;-82
2022/11/22 07:53:08;;;;;;;15.18;5.20;;;5.30;84.50;;;;;;5062216;28;20075;-83
2022/11/22 07:55:34;;;;;;;16.40;4.30;;;5.30;84.60;;;;;;5062566;28;20127;-82
2022/11/22 07:58:00;;;;;;;17.05;4.93;;;5.30;84.50;;;;;;5078768;28;20673;-82
2022/11/22 08:00:26;;;;;;;17.02;4.43;;;5.30;84.60;;;;;;5095685;28;20118;-82
2022/11/22 08:02:52;;;;;;;18.35;5.70;;;5.30;84.70;;;;;;5078475;28;20048;-82
2022/11/22 08:05:18;;;;;;;12.20;5.50;;;5.30;84.80;;;;;;5061766;28;20059;-82
2022/11/22 08:07:51;;;;;;;18.83;4.88;;;5.30;84.80;;;;;;5095722;28;20052;-83
2022/11/22 08:10:17;;;;;;;16.20;4.45;;;5.30;84.90;;;;;;5095505;28;20487;-83
2022/11/22 08:12:44;;;;;;;11.32;4.20;;;5.30;84.90;;;;;;5078506;28;20040;-82
2022/11/22 08:15:11;;;;;;;20.55;5.03;;;5.40;85.10;;;;;;5078735;28;20032;-82
2022/11/22 08:17:37;;;;;;;16.17;4.45;;;5.40;85.10;;;;;;5095623;28;20032;-83
2022/11/22 08:20:04;;;;;;;14.02;4.43;;;5.40;85.10;;;;;;5062104;28;20427;-82
2022/11/22 08:22:30;;;;;;;12.20;3.78;;;5.50;85.10;;;;;;5078385;28;20079;-82
2022/11/22 08:24:56;;;;;;;19.05;4.43;;;5.50;85.20;;;;;;5062086;28;20051;-82
2022/11/22 08:27:22;;;;;;;15.68;4.20;;;5.50;85.20;;;;;;5061762;28;20044;-82
2022/11/22 08:29:48;;;;;;;11.30;4.50;;;5.50;85.20;;;;;;5045076;28;20040;-82
2022/11/22 08:32:14;;;;;;;11.77;3.45;;;5.60;85.30;;;;;;5044319;28;20109;-81
2022/11/22 08:34:39;;;;;;;17.52;4.50;;;5.60;85.30;;;;;;5077479;28;20496;-81
2022/11/22 08:37:06;;;;;;;17.77;3.67;;;5.60;85.70;;;;;;5095087;28;20162;-82
2022/11/22 08:39:32;;;;;;;9.27;3.65;;;5.70;85.30;;;;;;5078382;28;20043;-82
2022/11/22 08:41:57;;;;;;;21.00;3.72;;;5.70;85.30;;;;;;5061414;28;20487;-82
2022/11/22 08:44:23;;;;;;;13.23;3.60;;;5.80;85.20;;;;;;5061648;28;20032;-82
2022/11/22 08:46:49;;;;;;;17.90;3.95;;;5.80;85.20;;;;;;5061187;28;20641;-81
2022/11/22 08:49:14;;;;;;;13.93;4.18;;;5.80;85.10;;;;;;5077952;28;20082;-82
2022/11/22 08:51:43;;;;;;;16.15;4.10;;;5.80;85.10;;;;;;5077759;28;20097;-82
2022/11/22 08:54:13;;;;;;;15.65;4.22;;;5.80;84.90;;;;;;5061497;28;20063;-82
2022/11/22 08:56:39;;;;;;;16.25;4.70;;;5.80;84.90;;;;;;5077834;28;20039;-82
2022/11/22 08:59:05;;;;;;;13.65;3.70;;;5.80;84.70;;;;;;5060875;28;20089;-82
2022/11/22 09:01:31;;;;;;;10.15;4.15;;;5.80;84.60;;;;;;5094532;28;20046;-82
2022/11/22 09:03:57;;;;;;;10.30;3.65;;;5.90;84.60;;;;;;5094716;28;20040;-81
2022/11/22 09:06:23;;;;;;;9.38;3.67;;;5.90;84.50;;;;;;5077274;28;20591;-82
2022/11/22 09:08:49;;;;;;;19.02;4.70;;;5.90;84.40;;;;;;5077421;28;20066;-82
2022/11/22 09:11:16;;;;;;;15.05;4.63;;;6.00;84.80;;;;;;5077208;28;20044;-82
2022/11/22 09:13:43;;;;;;;11.95;4.35;;;5.90;84.10;;;;;;5077677;28;20085;-82
2022/11/22 09:16:14;;;;;;;11.70;4.50;;;6.00;84.10;;;;;;5060771;28;20036;-82
2022/11/22 09:18:40;;;;;;;13.05;5.07;;;6.00;84.10;;;;;;5077230;28;20093;-82
2022/11/22 09:21:09;;;;;;;12.95;4.50;;;6.00;83.90;;;;;;5077354;28;20039;-81
2022/11/22 09:23:35;;;;;;;12.18;4.05;;;6.00;83.80;;;;;;5094220;28;20399;-82
2022/11/22 09:26:06;;;;;;;13.07;4.63;;;6.00;83.70;;;;;;5077088;28;20042;-82
2022/11/22 09:28:32;;;;;;;13.80;5.53;;;6.10;83.60;;;;;;5077382;28;20040;-82
2022/11/22 09:31:09;;;;;;;11.15;4.25;;;6.10;83.90;;;;;;5060560;28;20050;-82
2022/11/22 09:33:37;;;;;;;12.07;4.47;;;6.20;83.60;;;;;;5077041;28;20040;-82
2022/11/22 09:36:05;;;;;;;10.27;3.80;;;6.10;83.50;;;;;;5093747;28;20036;-82
2022/11/22 09:38:32;;;;;;;9.75;3.80;;;6.10;83.40;;;;;;5076689;28;20036;-82
2022/11/22 09:41:00;;;;;;;12.27;4.05;;;6.30;83.80;;;;;;5076750;28;20040;-82
2022/11/22 09:43:39;;;;;;;10.50;3.92;;;6.20;83.30;;;;;;5076698;28;20082;-82
2022/11/22 09:46:16;;;;;;;11.02;3.75;;;6.30;83.40;;;;;;5056571;28;20040;-82
2022/11/22 09:49:20;;;;;;;14.05;3.20;;;6.30;83.30;;;;;;5085024;28;20119;-82
2022/11/22 09:51:52;;;;;;;11.63;3.28;;;6.30;83.10;;;;;;5072033;28;20054;-82
2022/11/22 09:54:54;;;;;;;11.35;2.63;;;6.40;82.90;;;;;;5093690;28;20059;-81
2022/11/22 09:57:46;;;;;;;11.45;2.92;;;6.40;82.80;;;;;;5093520;28;20032;-81
2022/11/22 10:00:21;;;;;;;12.93;3.72;;;6.40;82.50;;;;;;5071937;28;20048;-82
2022/11/22 10:03:15;;;;;;;10.43;2.65;;;6.50;82.60;;;;;;5076529;28;20098;-82
2022/11/22 10:05:50;;;;;;;11.18;2.38;;;6.50;82.30;;;;;;5072723;28;20040;-82
2022/11/22 10:08:36;;;;;;;10.20;3.00;;;6.60;82.30;;;;;;5076523;28;20391;-82
2022/11/22 10:11:10;;;;;;;9.57;2.78;;;6.60;82.20;;;;;;5093253;28;20418;-83
2022/11/22 10:13:40;;;;;;;;;;;6.70;82.30;;;;;;5093572;28;20036;-82
2022/11/22 10:16:19;;;;;;;6.55;2.33;;;6.70;81.80;;;;;;5076489;28;20275;-82
2022/11/22 10:19:15;;;;;;;8.68;3.13;;;6.70;82.10;;;;;;5076203;28;20079;-82
2022/11/22 10:21:42;;;;;;;7.88;2.60;;;6.70;81.70;;;;;;5055156;28;20044;-83
2022/11/22 10:24:15;;;;;;;12.32;2.90;;;6.80;81.60;;;;;;5073027;28;20048;-82
2022/11/22 10:26:41;;;;;;;11.13;3.47;;;6.80;81.40;;;;;;5039420;28;20076;-82
2022/11/22 10:29:41;;;;;;;10.10;2.92;;;6.80;81.40;;;;;;5039432;28;20045;-82
2022/11/22 10:32:12;;;;;;;6.30;2.78;;;6.90;81.10;;;;;;5089394;28;20052;-82
2022/11/22 10:34:47;;;;;;;9.77;3.15;;;6.90;81.20;;;;;;5089291;28;20503;-82
2022/11/22 10:37:18;;;;;;;11.23;2.75;;;6.90;81.10;;;;;;5056069;28;20396;-81
2022/11/22 10:40:18;;;;;;;10.57;2.67;;;6.90;80.90;;;;;;5089259;28;20036;-82
2022/11/22 10:43:21;;;;;;;8.65;2.20;;;6.90;80.70;;;;;;5089474;28;20055;-82
2022/11/22 10:45:54;;;;;;;8.40;2.95;;;7.00;80.80;;;;;;5072357;28;20052;-83
2022/11/22 10:48:39;;;;;;;16.10;2.65;;;7.00;80.90;;;;;;5072603;28;20084;-83
2022/11/22 10:51:16;;;;;;;10.25;2.65;;;7.00;80.80;;;;;;5072203;28;20047;-82
2022/11/22 10:53:51;;;;;;;7.25;2.63;;;7.10;80.50;;;;;;5055808;28;20044;-83
2022/11/22 10:56:30;;;;;;;9.02;2.78;;;7.10;80.40;;;;;;5054676;28;20256;-82
2022/11/22 10:59:22;;;;;;;10.93;2.35;;;7.20;80.40;;;;;;5055657;28;20036;-83
2022/11/22 11:01:58;;;;;;;7.35;2.13;;;7.20;80.30;;;;;;5055217;28;20044;-83
2022/11/22 11:04:30;;;;;;;8.55;2.10;;;7.20;80.40;;;;;;5055760;28;20387;-83
2022/11/22 11:06:59;;;;;;;9.38;2.25;;;7.30;80.30;;;;;;5055189;28;20158;-83
2022/11/22 11:09:38;;;;;;;11.55;2.95;;;7.30;79.90;;;;;;5072039;28;20044;-82
2022/11/22 11:12:14;;;;;;;9.88;2.80;;;7.30;79.70;;;;;;5071933;28;20086;-83
2022/11/22 11:14:45;;;;;;;6.18;2.25;;;7.30;79.50;;;;;;5088820;28;20040;-83
2022/11/22 11:17:30;;;;;;;7.47;2.05;;;7.40;79.60;;;;;;5055345;28;20040;-84
2022/11/22 11:20:00;;;;;;;8.55;2.60;;;7.40;79.40;;;;;;5055232;28;20503;-81
2022/11/22 11:22:29;;;;;;;9.25;2.20;;;7.40;79.60;;;;;;5088736;28;20048;-82
2022/11/22 11:24:55;;;;;;;10.23;2.20;;;7.50;79.50;;;;;;5091393;28;20374;-75
2022/11/22 11:27:28;;;;;;;9.25;2.17;;;7.50;79.20;;;;;;5055384;28;20036;-76
2022/11/22 11:30:03;;;;;;;9.65;2.70;;;7.50;79.20;;;;;;5075010;28;20376;-75
2022/11/22 11:32:28;;;;;;;7.32;1.70;;;7.50;79.00;;;;;;5074495;28;20040;-75
2022/11/22 11:35:06;;;;;;;7.15;2.10;;;7.60;78.80;;;;;;5091738;28;20036;-77
2022/11/22 11:37:33;;;;;;;8.10;1.77;;;7.70;78.80;;;;;;5091835;28;20047;-75
2022/11/22 11:39:59;;;;;;;6.93;1.98;;;7.60;78.50;;;;;;5074488;28;20479;-75
2022/11/22 11:42:30;;;;;;;8.57;2.05;;;7.70;78.40;;;;;;5074575;28;20047;-75
2022/11/22 11:45:24;;;;;;;7.55;1.85;;;7.70;78.30;;;;;;5074752;28;20040;-75
2022/11/22 11:47:50;;;;;;;7.80;2.20;;;7.70;78.00;;;;;;5091315;28;20040;-75
2022/11/22 11:50:25;;;;;;;8.10;2.15;;;7.70;78.20;;;;;;5074487;28;20051;-75
2022/11/22 11:53:05;;;;;;;11.48;2.35;;;7.80;77.80;;;;;;5074613;28;20086;-75
2022/11/22 11:55:34;;;;;;;5.45;1.75;;;7.80;77.60;;;;;;5091586;28;20118;-75
2022/11/22 11:58:02;;;;;;;7.90;2.05;;;7.80;77.40;;;;;;5074367;28;20122;-75
2022/11/22 12:00:36;;;;;;;8.85;3.33;;;7.80;77.30;;;;;;5074618;28;20039;-75
2022/11/22 12:03:07;;;;;;;3.72;1.80;;;7.80;77.30;;;;;;5091365;28;20032;-75
2022/11/22 12:05:33;;;;;;;8.30;1.77;;;7.80;77.10;;;;;;5088816;28;20060;-75
2022/11/22 12:08:00;;;;;;;5.43;1.65;;;7.90;76.90;;;;;;5092364;28;20056;-75
2022/11/22 12:10:28;;;;;;;7.78;2.35;;;7.80;76.60;;;;;;5078306;28;20494;-75
2022/11/22 12:13:01;;;;;;;9.80;2.05;;;7.80;76.50;;;;;;5077868;28;20377;-75
2022/11/22 12:15:58;;;;;;;7.95;2.10;;;7.90;76.40;;;;;;5095360;28;20545;-75
2022/11/22 12:18:40;;;;;;;4.93;1.77;;;7.90;75.70;;;;;;5066523;28;20040;-75
2022/11/22 12:21:41;;;;;;;9.45;3.00;;;7.90;76.00;;;;;;5077934;28;20040;-75
2022/11/22 12:24:28;;;;;;;5.60;1.58;;;7.90;75.70;;;;;;5074704;28;20123;-75
2022/11/22 12:26:55;;;;;;;6.60;1.80;;;7.90;75.80;;;;;;5079393;28;20036;-75
2022/11/22 12:29:21;;;;;;;8.95;2.03;;;7.80;75.90;;;;;;5065519;28;20041;-75
2022/11/22 12:31:56;;;;;;;5.78;1.55;;;7.90;75.90;;;;;;5044330;28;20123;-74
2022/11/22 12:34:21;;;;;;;;;;;7.90;75.80;;;;;;5094762;28;20085;-75
2022/11/22 12:36:55;;;;;;;7.25;2.15;;;7.80;75.60;;;;;;5077636;28;20313;-75
2022/11/22 12:39:25;;;;;;;9.75;1.67;;;7.80;76.00;;;;;;5077733;28;20040;-75
2022/11/22 12:42:13;;;;;;;10.35;2.17;;;7.80;75.80;;;;;;5077896;28;20044;-75
2022/11/22 12:44:45;;;;;;;8.60;1.73;;;7.80;75.80;;;;;;5094435;28;20044;-75
2022/11/22 12:47:21;;;;;;;9.13;2.13;;;7.80;75.60;;;;;;5094302;28;20070;-74
2022/11/22 12:49:52;;;;;;;6.13;2.38;;;7.80;75.50;;;;;;5077258;28;20042;-74
2022/11/22 12:52:28;;;;;;;4.90;1.65;;;7.80;75.50;;;;;;5077330;28;20484;-75
2022/11/22 12:55:12;;;;;;;5.18;2.05;;;7.80;75.40;;;;;;5077725;28;20094;-75
2022/11/22 12:58:10;;;;;;;5.63;1.63;;;7.80;75.40;;;;;;5077287;28;20036;-75
2022/11/22 13:01:01;;;;;;;10.80;1.98;;;7.80;75.40;;;;;;5086923;28;20048;-75
2022/11/22 13:03:49;;;;;;;7.35;1.50;;;7.80;75.60;;;;;;5070305;28;20044;-74
2022/11/22 13:06:20;;;;;;;7.45;1.40;;;7.80;75.50;;;;;;5076710;28;20181;-75
2022/11/22 13:09:05;;;;;;;5.00;1.45;;;7.80;75.40;;;;;;5076953;28;20036;-74
2022/11/22 13:11:38;;;;;;;4.43;1.40;;;7.80;75.20;;;;;;5094033;28;20051;-75
2022/11/22 13:14:14;;;;;;;9.75;1.77;;;7.70;74.90;;;;;;5093740;28;20108;-75